Time,TemperatureF,DewpointF,PressureIn,WindDirection,WindDirectionDegrees,WindSpeedMPH,WindSpeedGustMPH,Humidity,HourlyPrecipIn,Conditions,Clouds,dailyrainin,SoftwareType,DateUTC
2013-07-23 00:04:00,72.7,71.2,30.00,WSW,246,1.0,7.0,95,0.00,,,0.75,meteohub,2013-07-23 05:04:00,
2013-07-23 00:09:00,72.7,71.2,29.99,West,272,2.0,7.0,95,0.00,,,0.75,meteohub,2013-07-23 05:09:00,
2013-07-23 00:15:00,72.7,71.2,30.00,WSW,258,3.0,7.0,95,0.00,,,0.75,meteohub,2013-07-23 05:15:00,
2013-07-23 00:20:00,72.5,71.1,30.00,West,278,3.0,7.0,95,0.00,,,0.75,meteohub,2013-07-23 05:20:00,
2013-07-23 00:25:00,72.3,70.9,30.00,West,276,3.0,8.0,95,0.00,,,0.75,meteohub,2013-07-23 05:25:00,
2013-07-23 00:30:00,72.3,70.9,30.00,West,274,3.0,8.0,95,0.00,,,0.75,meteohub,2013-07-23 05:30:00,
2013-07-23 00:35:00,72.3,70.9,29.99,SW,236,4.0,7.0,95,0.00,,,0.75,meteohub,2013-07-23 05:35:00,
2013-07-23 00:41:00,72.3,70.9,29.99,West,281,2.0,6.0,95,0.00,,,0.75,meteohub,2013-07-23 05:41:00,
2013-07-23 00:46:00,72.3,70.9,29.99,West,260,3.0,6.0,95,0.00,,,0.75,meteohub,2013-07-23 05:46:00,
2013-07-23 00:51:00,72.1,70.7,29.99,WSW,247,5.0,6.0,95,0.00,,,0.75,meteohub,2013-07-23 05:51:00,
2013-07-23 00:56:00,72.1,70.7,29.99,West,279,3.0,8.0,95,0.00,,,0.75,meteohub,2013-07-23 05:56:00,
2013-07-23 01:01:00,72.1,70.7,29.99,West,273,2.0,8.0,95,0.00,,,0.75,meteohub,2013-07-23 06:01:00,
2013-07-23 01:06:00,72.1,70.7,29.99,WSW,253,4.0,8.0,95,0.00,,,0.75,meteohub,2013-07-23 06:06:00,
2013-07-23 01:11:00,72.1,70.7,29.99,West,277,3.0,7.0,95,0.00,,,0.75,meteohub,2013-07-23 06:11:00,
2013-07-23 01:17:00,72.0,70.5,29.99,West,280,2.0,7.0,95,0.00,,,0.75,meteohub,2013-07-23 06:17:00,
2013-07-23 01:22:00,72.0,70.5,29.99,West,279,2.0,7.0,95,0.00,,,0.75,meteohub,2013-07-23 06:22:00,
2013-07-23 01:27:00,72.0,70.5,29.99,WSW,249,3.0,7.0,95,0.00,,,0.75,meteohub,2013-07-23 06:27:00,
2013-07-23 01:32:00,72.0,70.5,29.99,WNW,287,2.0,7.0,95,0.00,,,0.75,meteohub,2013-07-23 06:32:00,
2013-07-23 01:37:00,72.0,70.5,29.99,WNW,291,3.0,6.0,95,0.00,,,0.75,meteohub,2013-07-23 06:37:00,
2013-07-23 01:42:00,72.0,70.5,29.99,West,275,1.0,5.0,95,0.00,,,0.75,meteohub,2013-07-23 06:42:00,
2013-07-23 01:47:00,71.8,70.3,29.99,WSW,245,2.0,5.0,95,0.00,,,0.75,meteohub,2013-07-23 06:47:00,
2013-07-23 01:52:00,71.8,70.3,29.99,West,268,3.0,7.0,95,0.00,,,0.75,meteohub,2013-07-23 06:52:00,
2013-07-23 01:57:00,71.8,70.3,29.99,West,276,2.0,7.0,95,0.00,,,0.75,meteohub,2013-07-23 06:57:00,
2013-07-23 02:02:00,71.6,70.2,29.99,SW,224,1.0,7.0,95,0.00,,,0.75,meteohub,2013-07-23 07:02:00,
2013-07-23 02:07:00,71.6,70.2,29.99,WSW,257,2.0,4.0,95,0.00,,,0.75,meteohub,2013-07-23 07:07:00,
2013-07-23 02:12:00,71.4,70.0,29.99,West,264,1.0,5.0,95,0.00,,,0.75,meteohub,2013-07-23 07:12:00,
2013-07-23 02:17:00,71.4,70.0,29.99,West,264,1.0,5.0,95,0.00,,,0.75,meteohub,2013-07-23 07:17:00,
2013-07-23 02:22:00,71.4,70.0,29.99,West,264,1.0,5.0,95,0.00,,,0.75,meteohub,2013-07-23 07:22:00,
2013-07-23 02:27:00,71.4,70.0,29.99,WSW,248,1.0,4.0,95,0.00,,,0.75,meteohub,2013-07-23 07:27:00,
2013-07-23 02:32:00,71.4,70.0,29.99,West,274,0.0,4.0,95,0.00,,,0.75,meteohub,2013-07-23 07:32:00,
2013-07-23 02:37:00,71.2,69.8,29.99,West,264,2.0,4.0,95,0.00,,,0.75,meteohub,2013-07-23 07:37:00,
2013-07-23 02:42:00,71.2,69.8,29.99,West,277,0.0,4.0,95,0.00,,,0.75,meteohub,2013-07-23 07:42:00,
2013-07-23 02:48:00,71.2,69.8,30.00,West,265,1.0,5.0,95,0.00,,,0.75,meteohub,2013-07-23 07:48:00,
2013-07-23 02:53:00,71.4,70.0,30.00,West,265,3.0,5.0,95,0.00,,,0.75,meteohub,2013-07-23 07:53:00,
2013-07-23 02:58:00,71.4,70.0,30.00,West,265,1.0,5.0,95,0.00,,,0.75,meteohub,2013-07-23 07:58:00,
2013-07-23 03:03:00,71.4,70.0,30.00,West,259,3.0,4.0,95,0.00,,,0.75,meteohub,2013-07-23 08:03:00,
2013-07-23 03:08:00,71.4,70.0,30.01,West,259,1.0,4.0,95,0.00,,,0.75,meteohub,2013-07-23 08:08:00,
2013-07-23 03:13:00,71.4,70.0,30.00,West,260,2.0,4.0,95,0.00,,,0.75,meteohub,2013-07-23 08:13:00,
2013-07-23 03:18:00,71.4,70.0,30.01,West,266,0.0,4.0,95,0.00,,,0.75,meteohub,2013-07-23 08:18:00,
2013-07-23 03:23:00,71.4,70.0,30.01,West,266,0.0,4.0,95,0.00,,,0.75,meteohub,2013-07-23 08:23:00,
2013-07-23 03:28:00,71.4,70.0,30.01,West,266,0.0,4.0,95,0.00,,,0.75,meteohub,2013-07-23 08:28:00,
2013-07-23 03:34:00,71.4,70.0,30.01,West,266,0.0,3.0,95,0.00,,,0.75,meteohub,2013-07-23 08:34:00,
2013-07-23 03:39:00,71.4,70.0,30.01,West,266,0.0,3.0,95,0.00,,,0.75,meteohub,2013-07-23 08:39:00,
2013-07-23 03:44:00,71.4,70.0,30.01,West,266,2.0,2.0,95,0.00,,,0.75,meteohub,2013-07-23 08:44:00,
2013-07-23 03:49:00,71.6,70.3,30.01,West,266,1.0,2.0,96,0.00,,,0.75,meteohub,2013-07-23 08:49:00,
2013-07-23 03:54:00,71.6,70.3,30.01,West,266,0.0,2.0,96,0.00,,,0.75,meteohub,2013-07-23 08:54:00,
2013-07-23 03:59:00,71.6,70.3,30.01,West,266,0.0,2.0,96,0.00,,,0.75,meteohub,2013-07-23 08:59:00,
2013-07-23 04:04:00,71.6,70.3,30.01,West,266,0.0,1.0,96,0.00,,,0.75,meteohub,2013-07-23 09:04:00,
2013-07-23 04:09:00,71.8,70.5,30.01,West,266,0.0,2.0,96,0.00,,,0.75,meteohub,2013-07-23 09:09:00,
2013-07-23 04:15:00,71.8,70.5,30.01,West,266,1.0,2.0,96,0.00,,,0.75,meteohub,2013-07-23 09:15:00,
2013-07-23 04:20:00,71.8,70.5,30.01,West,266,2.0,2.0,96,0.00,,,0.75,meteohub,2013-07-23 09:20:00,
2013-07-23 04:25:00,71.8,70.5,30.01,West,266,0.0,2.0,96,0.00,,,0.75,meteohub,2013-07-23 09:25:00,
2013-07-23 04:30:00,72.0,70.5,30.01,West,266,2.0,3.0,95,0.00,,,0.75,meteohub,2013-07-23 09:30:00,
2013-07-23 04:35:00,72.0,70.5,30.01,West,266,0.0,3.0,95,0.00,,,0.75,meteohub,2013-07-23 09:35:00,
2013-07-23 04:40:00,72.0,70.5,30.01,West,266,1.0,3.0,95,0.00,,,0.75,meteohub,2013-07-23 09:40:00,
2013-07-23 04:45:00,72.1,70.7,30.01,West,266,1.0,3.0,95,0.00,,,0.75,meteohub,2013-07-23 09:45:00,
2013-07-23 04:50:00,72.1,70.7,30.02,West,272,1.0,3.0,95,0.00,,,0.75,meteohub,2013-07-23 09:50:00,
2013-07-23 04:56:00,72.1,70.7,30.02,West,272,2.0,4.0,95,0.00,,,0.75,meteohub,2013-07-23 09:56:00,
2013-07-23 05:01:00,72.3,70.9,30.02,West,272,0.0,4.0,95,0.00,,,0.75,meteohub,2013-07-23 10:01:00,
2013-07-23 05:06:00,72.3,70.9,30.02,West,272,0.0,4.0,95,0.00,,,0.75,meteohub,2013-07-23 10:06:00,
2013-07-23 05:11:00,72.3,70.9,30.02,West,272,0.0,3.0,95,0.00,,,0.75,meteohub,2013-07-23 10:11:00,
2013-07-23 05:16:00,72.3,70.9,30.02,West,272,1.0,3.0,95,0.00,,,0.75,meteohub,2013-07-23 10:16:00,
2013-07-23 05:21:00,72.3,70.9,30.02,West,272,0.0,2.0,95,0.00,,,0.75,meteohub,2013-07-23 10:21:00,
2013-07-23 05:26:00,72.5,71.1,30.02,West,265,1.0,4.0,95,0.00,,,0.75,meteohub,2013-07-23 10:26:00,
2013-07-23 05:31:00,72.5,71.1,30.02,West,265,0.0,4.0,95,0.00,,,0.75,meteohub,2013-07-23 10:31:00,
2013-07-23 05:37:00,72.7,71.2,30.02,West,265,2.0,4.0,95,0.00,,,0.75,meteohub,2013-07-23 10:37:00,
2013-07-23 05:42:00,72.7,71.2,30.02,West,272,1.0,2.0,95,0.00,,,0.75,meteohub,2013-07-23 10:42:00,
2013-07-23 05:47:00,72.7,71.2,30.02,West,261,1.0,2.0,95,0.00,,,0.75,meteohub,2013-07-23 10:47:00,
2013-07-23 05:52:00,72.7,71.2,30.02,West,268,0.0,3.0,95,0.00,,,0.75,meteohub,2013-07-23 10:52:00,
2013-07-23 05:57:00,72.7,71.2,30.02,WSW,251,1.0,3.0,95,0.00,,,0.75,meteohub,2013-07-23 10:57:00,
2013-07-23 06:02:00,72.7,71.2,30.02,WSW,237,4.0,4.0,95,0.00,,,0.75,meteohub,2013-07-23 11:02:00,
2013-07-23 06:07:00,72.9,71.4,30.03,WNW,283,3.0,4.0,95,0.00,,,0.75,meteohub,2013-07-23 11:07:00,
2013-07-23 06:12:00,72.9,71.4,30.02,WNW,294,4.0,4.0,95,0.00,,,0.75,meteohub,2013-07-23 11:12:00,
2013-07-23 06:17:00,73.0,71.6,30.02,West,262,1.0,6.0,95,0.00,,,0.75,meteohub,2013-07-23 11:17:00,
2013-07-23 06:22:00,73.0,71.6,30.02,WSW,251,2.0,6.0,95,0.00,,,0.75,meteohub,2013-07-23 11:22:00,
2013-07-23 06:27:00,73.2,71.8,30.02,West,278,1.0,7.0,95,0.00,,,0.75,meteohub,2013-07-23 11:27:00,
2013-07-23 06:32:00,73.2,71.8,30.02,West,262,2.0,7.0,95,0.00,,,0.75,meteohub,2013-07-23 11:32:00,
2013-07-23 06:37:00,73.2,71.8,30.02,West,269,2.0,7.0,95,0.00,,,0.75,meteohub,2013-07-23 11:37:00,
2013-07-23 06:42:00,73.2,71.8,30.03,SW,231,4.0,6.0,95,0.00,,,0.75,meteohub,2013-07-23 11:42:00,
2013-07-23 06:47:00,73.4,72.0,30.02,West,264,2.0,6.0,95,0.00,,,0.75,meteohub,2013-07-23 11:47:00,
2013-07-23 06:52:00,73.6,72.1,30.02,West,280,3.0,6.0,95,0.00,,,0.75,meteohub,2013-07-23 11:52:00,
2013-07-23 06:57:00,73.6,72.1,30.02,West,266,2.0,6.0,95,0.00,,,0.75,meteohub,2013-07-23 11:57:00,
2013-07-23 07:02:00,73.8,72.5,30.02,West,273,2.0,5.0,96,0.00,,,0.75,meteohub,2013-07-23 12:02:00,
2013-07-23 07:07:00,73.8,72.5,30.02,WNW,293,3.0,15.0,96,0.01,,,0.76,meteohub,2013-07-23 12:07:00,
2013-07-23 07:12:00,73.9,72.5,30.02,WSW,256,5.0,15.0,95,0.01,,,0.76,meteohub,2013-07-23 12:12:00,
2013-07-23 07:17:00,74.1,72.7,30.02,West,280,3.0,15.0,95,0.01,,,0.76,meteohub,2013-07-23 12:17:00,
2013-07-23 07:22:00,74.3,72.9,30.02,WSW,240,3.0,7.0,95,0.01,,,0.76,meteohub,2013-07-23 12:22:00,
2013-07-23 07:27:00,74.5,73.0,30.02,West,270,2.0,8.0,95,0.01,,,0.76,meteohub,2013-07-23 12:27:00,
2013-07-23 07:32:00,74.7,73.2,30.02,WNW,287,6.0,8.0,95,0.01,,,0.76,meteohub,2013-07-23 12:32:00,
2013-07-23 07:37:00,74.8,73.2,30.02,West,278,4.0,10.0,95,0.01,,,0.76,meteohub,2013-07-23 12:37:00,
2013-07-23 07:42:00,75.0,73.4,30.02,WNW,296,6.0,10.0,95,0.01,,,0.76,meteohub,2013-07-23 12:42:00,
2013-07-23 07:47:00,75.2,73.6,30.02,West,279,4.0,10.0,95,0.01,,,0.76,meteohub,2013-07-23 12:47:00,
2013-07-23 07:52:00,75.4,73.8,30.02,West,281,3.0,10.0,95,0.01,,,0.76,meteohub,2013-07-23 12:52:00,
2013-07-23 07:57:00,75.4,73.8,30.02,WNW,285,4.0,10.0,95,0.01,,,0.76,meteohub,2013-07-23 12:57:00,
2013-07-23 08:02:00,75.4,73.8,30.02,West,279,4.0,9.0,95,0.00,,,0.76,meteohub,2013-07-23 13:02:00,
2013-07-23 08:07:00,75.6,73.9,30.03,West,280,4.0,8.0,95,0.00,,,0.76,meteohub,2013-07-23 13:07:00,
2013-07-23 08:12:00,75.6,73.9,30.03,West,272,6.0,8.0,95,0.00,,,0.76,meteohub,2013-07-23 13:12:00,
2013-07-23 08:17:00,75.6,73.9,30.03,WNW,287,1.0,10.0,95,0.00,,,0.76,meteohub,2013-07-23 13:17:00,
2013-07-23 08:22:00,75.7,74.1,30.03,West,260,5.0,10.0,95,0.00,,,0.76,meteohub,2013-07-23 13:22:00,
2013-07-23 08:27:00,75.7,74.1,30.03,NW,310,2.0,10.0,95,0.00,,,0.76,meteohub,2013-07-23 13:27:00,
2013-07-23 08:32:00,75.9,74.3,30.03,West,269,5.0,8.0,95,0.00,,,0.76,meteohub,2013-07-23 13:32:00,
2013-07-23 08:38:00,76.1,74.3,30.03,West,271,3.0,7.0,94,0.00,,,0.76,meteohub,2013-07-23 13:38:00,
2013-07-23 08:43:00,76.3,74.5,30.03,WNW,292,4.0,7.0,94,0.00,,,0.76,meteohub,2013-07-23 13:43:00,
2013-07-23 08:48:00,76.6,74.8,30.03,WSW,257,2.0,7.0,94,0.00,,,0.76,meteohub,2013-07-23 13:48:00,
2013-07-23 08:53:00,77.0,75.2,30.03,West,278,6.0,6.0,94,0.00,,,0.76,meteohub,2013-07-23 13:53:00,
2013-07-23 08:58:00,77.2,75.0,30.03,WNW,299,4.0,8.0,93,0.00,,,0.76,meteohub,2013-07-23 13:58:00,
2013-07-23 09:03:00,77.5,75.4,30.03,West,271,3.0,9.0,93,0.00,,,0.76,meteohub,2013-07-23 14:03:00,
2013-07-23 09:08:00,77.7,75.2,30.03,West,265,5.0,9.0,92,0.00,,,0.76,meteohub,2013-07-23 14:08:00,
2013-07-23 09:13:00,78.3,75.7,30.03,WNW,283,4.0,9.0,92,0.00,,,0.76,meteohub,2013-07-23 14:13:00,
2013-07-23 09:19:00,78.6,75.7,30.03,WNW,286,7.0,8.0,91,0.00,,,0.76,meteohub,2013-07-23 14:19:00,
2013-07-23 09:24:00,78.6,75.4,30.03,WNW,287,7.0,8.0,90,0.00,,,0.76,meteohub,2013-07-23 14:24:00,
2013-07-23 09:29:00,79.2,76.3,30.03,West,279,5.0,10.0,91,0.00,,,0.76,meteohub,2013-07-23 14:29:00,
2013-07-23 09:34:00,79.3,76.1,30.03,WSW,242,5.0,10.0,90,0.00,,,0.76,meteohub,2013-07-23 14:34:00,
2013-07-23 09:39:00,79.5,76.3,30.03,WSW,255,4.0,9.0,90,0.00,,,0.76,meteohub,2013-07-23 14:39:00,
2013-07-23 09:44:00,79.7,76.5,30.03,West,276,0.0,10.0,90,0.00,,,0.76,meteohub,2013-07-23 14:44:00,
2013-07-23 09:49:00,80.1,76.1,30.03,West,260,6.0,10.0,88,0.00,,,0.76,meteohub,2013-07-23 14:49:00,
2013-07-23 09:54:00,80.4,76.8,30.03,WNW,295,2.0,12.0,89,0.00,,,0.76,meteohub,2013-07-23 14:54:00,
2013-07-23 10:00:00,80.4,76.5,30.03,WNW,301,7.0,12.0,88,0.00,,,0.76,meteohub,2013-07-23 15:00:00,
2013-07-23 10:05:00,80.6,76.3,30.03,WNW,297,5.0,12.0,87,0.00,,,0.76,meteohub,2013-07-23 15:05:00,
2013-07-23 10:10:00,80.4,76.1,30.03,West,272,3.0,9.0,87,0.00,,,0.76,meteohub,2013-07-23 15:10:00,
2013-07-23 10:15:00,81.0,77.0,30.02,West,262,1.0,12.0,88,0.00,,,0.76,meteohub,2013-07-23 15:15:00,
2013-07-23 10:20:00,81.7,77.0,30.02,WNW,295,6.0,12.0,86,0.00,,,0.76,meteohub,2013-07-23 15:20:00,
2013-07-23 10:25:00,81.9,76.8,30.02,West,280,2.0,7.0,85,0.00,,,0.76,meteohub,2013-07-23 15:25:00,
2013-07-23 10:30:00,81.9,76.8,30.02,SW,227,4.0,7.0,85,0.00,,,0.76,meteohub,2013-07-23 15:30:00,
2013-07-23 10:35:00,81.7,76.6,30.02,WSW,258,6.0,8.0,85,0.00,,,0.76,meteohub,2013-07-23 15:35:00,
2013-07-23 10:40:00,81.9,76.8,30.02,WNW,286,5.0,8.0,85,0.00,,,0.76,meteohub,2013-07-23 15:40:00,
2013-07-23 10:46:00,82.2,76.5,30.02,WNW,293,3.0,9.0,83,0.00,,,0.76,meteohub,2013-07-23 15:46:00,
2013-07-23 10:51:00,82.6,77.5,30.02,West,279,0.0,9.0,85,0.00,,,0.76,meteohub,2013-07-23 15:51:00,
2013-07-23 10:56:00,82.8,77.0,30.02,WNW,282,4.0,9.0,83,0.00,,,0.76,meteohub,2013-07-23 15:56:00,
2013-07-23 11:01:00,82.6,77.5,30.02,West,273,0.0,9.0,85,0.00,,,0.76,meteohub,2013-07-23 16:01:00,
2013-07-23 11:06:00,82.6,76.8,30.02,WNW,287,3.0,9.0,83,0.00,,,0.76,meteohub,2013-07-23 16:06:00,
2013-07-23 11:11:00,82.8,77.7,30.02,WSW,241,6.0,9.0,85,0.00,,,0.76,meteohub,2013-07-23 16:11:00,
2013-07-23 11:16:00,82.8,77.4,30.02,NW,311,3.0,9.0,84,0.00,,,0.76,meteohub,2013-07-23 16:16:00,
2013-07-23 11:21:00,82.8,77.4,30.02,WNW,287,4.0,9.0,84,0.00,,,0.76,meteohub,2013-07-23 16:21:00,
2013-07-23 11:27:00,83.1,77.0,30.02,West,276,1.0,7.0,82,0.00,,,0.76,meteohub,2013-07-23 16:27:00,
2013-07-23 11:32:00,83.5,77.0,30.01,WNW,300,3.0,8.0,81,0.00,,,0.76,meteohub,2013-07-23 16:32:00,
2013-07-23 11:37:00,83.7,77.2,30.01,West,272,4.0,9.0,81,0.00,,,0.76,meteohub,2013-07-23 16:37:00,
2013-07-23 11:42:00,83.7,77.2,30.01,SW,236,1.0,9.0,81,0.00,,,0.76,meteohub,2013-07-23 16:42:00,
2013-07-23 11:47:00,83.7,77.2,30.01,West,279,4.0,10.0,81,0.00,,,0.76,meteohub,2013-07-23 16:47:00,
2013-07-23 11:52:00,83.7,77.9,30.00,West,261,4.0,10.0,83,0.00,,,0.76,meteohub,2013-07-23 16:52:00,
2013-07-23 11:57:00,84.0,77.5,30.00,West,273,3.0,10.0,81,0.00,,,0.76,meteohub,2013-07-23 16:57:00,
2013-07-23 12:02:00,84.4,77.9,30.00,West,281,3.0,7.0,81,0.00,,,0.76,meteohub,2013-07-23 17:02:00,
2013-07-23 12:07:00,84.6,78.4,29.99,SW,234,1.0,7.0,82,0.00,,,0.76,meteohub,2013-07-23 17:07:00,
2013-07-23 12:12:00,84.7,77.5,29.99,West,272,2.0,7.0,79,0.00,,,0.76,meteohub,2013-07-23 17:12:00,
2013-07-23 12:17:00,84.7,77.5,29.99,West,268,2.0,7.0,79,0.00,,,0.76,meteohub,2013-07-23 17:17:00,
2013-07-23 12:22:00,84.6,77.7,29.99,WSW,254,2.0,8.0,80,0.00,,,0.76,meteohub,2013-07-23 17:22:00,
2013-07-23 12:27:00,85.3,78.4,29.98,WSW,250,2.0,9.0,80,0.00,,,0.76,meteohub,2013-07-23 17:27:00,
2013-07-23 12:32:00,85.6,78.4,29.98,WNW,282,5.0,9.0,79,0.00,,,0.76,meteohub,2013-07-23 17:32:00,
2013-07-23 12:37:00,85.8,77.7,29.98,WSW,258,4.0,11.0,77,0.00,,,0.76,meteohub,2013-07-23 17:37:00,
2013-07-23 12:42:00,85.8,79.0,29.98,WNW,282,4.0,11.0,80,0.00,,,0.76,meteohub,2013-07-23 17:42:00,
2013-07-23 12:47:00,85.8,78.1,29.97,WSW,256,2.0,9.0,78,0.00,,,0.76,meteohub,2013-07-23 17:47:00,
2013-07-23 12:52:00,85.8,78.1,29.97,West,263,3.0,8.0,78,0.00,,,0.76,meteohub,2013-07-23 17:52:00,
2013-07-23 12:57:00,85.8,77.7,29.97,WSW,249,4.0,11.0,77,0.00,,,0.76,meteohub,2013-07-23 17:57:00,
2013-07-23 13:02:00,85.6,77.9,29.97,West,279,6.0,11.0,78,0.00,,,0.76,meteohub,2013-07-23 18:02:00,
2013-07-23 13:07:00,86.0,78.8,29.97,West,270,5.0,11.0,79,0.00,,,0.76,meteohub,2013-07-23 18:07:00,
2013-07-23 13:12:00,86.5,78.4,29.96,NW,312,4.0,8.0,77,0.00,,,0.76,meteohub,2013-07-23 18:12:00,
2013-07-23 13:17:00,86.7,78.3,29.96,SW,234,5.0,10.0,76,0.00,,,0.76,meteohub,2013-07-23 18:17:00,
2013-07-23 13:22:00,86.7,77.9,29.96,WNW,302,4.0,10.0,75,0.00,,,0.76,meteohub,2013-07-23 18:22:00,
2013-07-23 13:27:00,86.2,77.7,29.96,West,263,3.0,10.0,76,0.00,,,0.76,meteohub,2013-07-23 18:27:00,
2013-07-23 13:32:00,86.7,78.6,29.96,WNW,284,8.0,10.0,77,0.00,,,0.76,meteohub,2013-07-23 18:32:00,
2013-07-23 13:37:00,86.9,78.4,29.96,West,262,3.0,11.0,76,0.00,,,0.76,meteohub,2013-07-23 18:37:00,
2013-07-23 13:47:00,86.5,77.7,29.96,WSW,258,5.0,13.0,75,0.00,,,0.76,meteohub,2013-07-23 18:47:00,
2013-07-23 13:52:00,86.9,78.1,29.96,WSW,250,2.0,11.0,75,0.00,,,0.76,meteohub,2013-07-23 18:52:00,
2013-07-23 13:57:00,87.4,79.0,29.95,West,276,1.0,11.0,76,0.00,,,0.76,meteohub,2013-07-23 18:57:00,
2013-07-23 14:02:00,87.1,77.7,29.95,West,270,5.0,10.0,74,0.00,,,0.76,meteohub,2013-07-23 19:02:00,
2013-07-23 14:07:00,87.3,77.9,29.94,WNW,283,6.0,13.0,74,0.00,,,0.76,meteohub,2013-07-23 19:07:00,
2013-07-23 14:12:00,86.9,77.2,29.94,WSW,258,8.0,13.0,73,0.00,,,0.76,meteohub,2013-07-23 19:12:00,
2013-07-23 14:17:00,87.4,77.7,29.93,West,261,6.0,13.0,73,0.00,,,0.76,meteohub,2013-07-23 19:17:00,
2013-07-23 14:22:00,88.2,77.9,29.93,WNW,286,5.0,13.0,72,0.00,,,0.76,meteohub,2013-07-23 19:22:00,
2013-07-23 14:27:00,88.2,77.5,29.93,SW,235,12.0,13.0,71,0.00,,,0.76,meteohub,2013-07-23 19:27:00,
2013-07-23 14:32:00,87.6,77.5,29.93,WNW,287,9.0,14.0,72,0.00,,,0.76,meteohub,2013-07-23 19:32:00,
2013-07-23 14:37:00,87.4,76.8,29.92,West,260,4.0,14.0,71,0.00,,,0.76,meteohub,2013-07-23 19:37:00,
2013-07-23 14:42:00,87.4,77.4,29.93,West,275,5.0,13.0,72,0.00,,,0.76,meteohub,2013-07-23 19:42:00,
2013-07-23 14:47:00,87.8,78.1,29.92,WSW,256,7.0,13.0,73,0.00,,,0.76,meteohub,2013-07-23 19:47:00,
2013-07-23 14:53:00,88.2,77.5,29.92,West,280,3.0,15.0,71,0.00,,,0.76,meteohub,2013-07-23 19:53:00,
2013-07-23 14:58:00,88.2,77.2,29.92,West,278,4.0,15.0,70,0.00,,,0.76,meteohub,2013-07-23 19:58:00,
2013-07-23 15:04:00,88.0,77.4,29.92,WSW,252,7.0,15.0,71,0.00,,,0.76,meteohub,2013-07-23 20:04:00,
2013-07-23 15:09:00,87.8,78.1,29.92,West,268,8.0,13.0,73,0.00,,,0.76,meteohub,2013-07-23 20:09:00,
2013-07-23 15:14:00,88.3,78.1,29.91,WNW,288,4.0,13.0,72,0.00,,,0.76,meteohub,2013-07-23 20:14:00,
2013-07-23 15:21:00,88.7,77.7,29.91,West,260,2.0,13.0,70,0.00,,,0.76,meteohub,2013-07-23 20:21:00,
2013-07-23 15:27:00,88.7,77.2,29.91,West,268,5.0,13.0,69,0.00,,,0.76,meteohub,2013-07-23 20:27:00,
2013-07-23 15:35:00,88.5,77.0,29.91,West,280,16.0,16.0,69,0.00,,,0.76,meteohub,2013-07-23 20:35:00,
2013-07-23 15:42:00,88.3,76.8,29.91,WSW,247,7.0,16.0,69,0.00,,,0.76,meteohub,2013-07-23 20:42:00,
2013-07-23 15:47:00,88.2,76.6,29.91,West,280,6.0,16.0,69,0.00,,,0.76,meteohub,2013-07-23 20:47:00,
2013-07-23 15:52:00,88.2,77.5,29.90,NW,305,6.0,13.0,71,0.00,,,0.76,meteohub,2013-07-23 20:52:00,
2013-07-23 15:57:00,87.6,77.0,29.91,West,280,7.0,13.0,71,0.00,,,0.76,meteohub,2013-07-23 20:57:00,
2013-07-23 16:02:00,87.3,76.6,29.91,WSW,258,5.0,13.0,71,0.00,,,0.76,meteohub,2013-07-23 21:02:00,
2013-07-23 16:07:00,87.1,76.5,29.91,WSW,253,6.0,18.0,71,0.00,,,0.76,meteohub,2013-07-23 21:07:00,
2013-07-23 16:12:00,86.7,76.6,29.91,West,268,5.0,18.0,72,0.00,,,0.76,meteohub,2013-07-23 21:12:00,
2013-07-23 16:17:00,86.4,77.0,29.92,West,274,11.0,18.0,74,0.00,,,0.76,meteohub,2013-07-23 21:17:00,
2013-07-23 16:22:00,84.4,76.8,29.92,WNW,290,3.0,15.0,78,0.00,,,0.76,meteohub,2013-07-23 21:22:00,
2013-07-23 16:27:00,83.1,77.4,29.91,West,263,5.0,15.0,83,0.00,,,0.76,meteohub,2013-07-23 21:27:00,
2013-07-23 16:32:00,82.6,77.2,29.91,West,280,3.0,15.0,84,0.00,,,0.76,meteohub,2013-07-23 21:32:00,
2013-07-23 16:37:00,82.2,77.2,29.92,WNW,291,3.0,9.0,85,0.00,,,0.76,meteohub,2013-07-23 21:37:00,
2013-07-23 16:42:00,82.2,77.5,29.92,West,274,3.0,7.0,86,0.00,,,0.76,meteohub,2013-07-23 21:42:00,
2013-07-23 16:47:00,82.4,77.7,29.92,West,276,1.0,7.0,86,0.00,,,0.76,meteohub,2013-07-23 21:47:00,
2013-07-23 16:52:00,82.4,78.1,29.92,West,276,4.0,6.0,87,0.00,,,0.76,meteohub,2013-07-23 21:52:00,
2013-07-23 16:58:00,82.2,77.5,29.97,NW,304,6.0,10.0,86,0.00,,,0.76,meteohub,2013-07-23 21:58:00,
2013-07-23 17:03:00,79.2,71.8,29.97,SW,226,8.0,15.0,78,0.00,,,0.76,meteohub,2013-07-23 22:03:00,
2013-07-23 17:08:00,73.8,69.6,29.97,WSW,256,5.0,15.0,87,0.07,,,0.83,meteohub,2013-07-23 22:08:00,
2013-07-23 17:13:00,72.1,69.1,29.97,West,281,6.0,15.0,90,0.25,,,1.01,meteohub,2013-07-23 22:13:00,
2013-07-23 17:19:00,71.1,68.4,29.98,WSW,254,10.0,13.0,91,0.28,,,1.04,meteohub,2013-07-23 22:19:00,
2013-07-23 17:24:00,70.5,68.4,29.99,WNW,289,4.0,13.0,93,0.32,,,1.08,meteohub,2013-07-23 22:24:00,
2013-07-23 17:29:00,70.3,68.2,29.98,NW,308,7.0,13.0,93,0.34,,,1.10,meteohub,2013-07-23 22:29:00,
2013-07-23 17:34:00,70.2,68.0,29.98,WNW,286,5.0,15.0,93,0.34,,,1.10,meteohub,2013-07-23 22:34:00,
2013-07-23 17:41:00,70.2,68.0,29.98,NNW,332,6.0,17.0,93,0.37,,,1.13,meteohub,2013-07-23 22:41:00,
2013-07-23 17:47:00,70.0,67.8,29.97,WNW,295,0.0,15.0,93,0.39,,,1.15,meteohub,2013-07-23 22:47:00,
2013-07-23 17:52:00,69.8,68.0,29.97,WNW,293,2.0,8.0,94,0.39,,,1.15,meteohub,2013-07-23 22:52:00,
2013-07-23 17:57:00,69.8,68.0,29.96,NNW,332,0.0,8.0,94,0.40,,,1.16,meteohub,2013-07-23 22:57:00,
2013-07-23 18:02:00,69.8,68.0,29.95,WNW,291,2.0,7.0,94,0.38,,,1.16,meteohub,2013-07-23 23:02:00,
2013-07-23 18:07:00,69.8,68.0,29.95,WNW,295,2.0,5.0,94,0.30,,,1.16,meteohub,2013-07-23 23:07:00,
2013-07-23 18:12:00,69.8,68.0,29.95,WNW,295,1.0,5.0,94,0.14,,,1.16,meteohub,2013-07-23 23:12:00,
2013-07-23 18:17:00,69.8,68.0,29.95,WNW,292,1.0,5.0,94,0.11,,,1.17,meteohub,2013-07-23 23:17:00,
2013-07-23 18:22:00,69.8,68.0,29.95,WNW,292,1.0,4.0,94,0.08,,,1.17,meteohub,2013-07-23 23:22:00,
2013-07-23 18:27:00,70.0,68.2,29.94,WNW,292,0.0,3.0,94,0.07,,,1.17,meteohub,2013-07-23 23:27:00,
2013-07-23 18:32:00,70.0,68.2,29.94,WNW,282,3.0,3.0,94,0.05,,,1.17,meteohub,2013-07-23 23:32:00,
2013-07-23 18:37:00,69.8,68.0,29.94,West,264,0.0,4.0,94,0.04,,,1.18,meteohub,2013-07-23 23:37:00,
2013-07-23 18:42:00,70.0,68.2,29.94,West,266,2.0,5.0,94,0.04,,,1.18,meteohub,2013-07-23 23:42:00,
2013-07-23 18:47:00,70.0,68.2,29.94,West,281,0.0,5.0,94,0.03,,,1.18,meteohub,2013-07-23 23:47:00,
2013-07-23 18:52:00,70.0,68.2,29.94,West,281,1.0,4.0,94,0.02,,,1.18,meteohub,2013-07-23 23:52:00,
2013-07-23 18:57:00,70.0,68.2,29.93,West,281,0.0,3.0,94,0.02,,,1.18,meteohub,2013-07-23 23:57:00,
2013-07-23 19:02:00,70.0,68.2,29.93,West,276,0.0,1.0,94,0.02,,,1.18,meteohub,2013-07-24 00:02:00,
2013-07-23 19:07:00,70.0,68.5,29.94,West,276,0.0,1.0,95,0.02,,,1.18,meteohub,2013-07-24 00:07:00,
2013-07-23 19:12:00,70.0,68.5,29.93,West,276,0.0,1.0,95,0.02,,,0.00,meteohub,2013-07-24 00:12:00,
2013-07-23 19:21:00,70.2,68.7,29.92,West,274,0.0,1.0,95,0.01,,,0.00,meteohub,2013-07-24 00:21:00,
2013-07-23 19:26:00,70.2,68.7,29.92,SE,127,2.0,2.0,95,0.01,,,0.00,meteohub,2013-07-24 00:26:00,
2013-07-23 19:32:00,70.2,68.7,29.93,SE,137,0.0,3.0,95,0.01,,,0.00,meteohub,2013-07-24 00:32:00,
2013-07-23 19:37:00,70.2,68.7,29.94,South,183,0.0,3.0,95,0.00,,,0.00,meteohub,2013-07-24 00:37:00,
2013-07-23 19:42:00,70.2,68.7,29.95,SW,223,0.0,3.0,95,0.00,,,0.00,meteohub,2013-07-24 00:42:00,
2013-07-23 19:47:00,70.2,68.7,29.95,WSW,251,1.0,4.0,95,0.00,,,0.00,meteohub,2013-07-24 00:47:00,
2013-07-23 19:52:00,70.0,68.5,29.96,WSW,239,5.0,6.0,95,0.00,,,0.00,meteohub,2013-07-24 00:52:00,
2013-07-23 19:57:00,70.0,68.5,29.96,WSW,249,0.0,6.0,95,0.00,,,0.00,meteohub,2013-07-24 00:57:00,
2013-07-23 20:05:00,70.0,68.5,29.96,WSW,247,0.0,7.0,95,0.00,,,0.00,meteohub,2013-07-24 01:05:00,
2013-07-23 20:12:00,70.0,68.5,29.95,South,187,1.0,4.0,95,0.00,,,0.00,meteohub,2013-07-24 01:12:00,
2013-07-23 20:17:00,70.0,68.5,29.94,South,187,0.0,3.0,95,0.00,,,0.00,meteohub,2013-07-24 01:17:00,
2013-07-23 20:22:00,70.0,68.5,29.95,South,187,0.0,2.0,95,0.00,,,0.00,meteohub,2013-07-24 01:22:00,
2013-07-23 20:29:00,70.0,68.5,29.94,ESE,106,1.0,2.0,95,0.00,,,0.00,meteohub,2013-07-24 01:29:00,
2013-07-23 20:34:00,70.0,68.5,29.95,SSW,199,0.0,2.0,95,0.00,,,0.00,meteohub,2013-07-24 01:34:00,
2013-07-23 20:39:00,70.0,68.5,29.95,South,190,0.0,3.0,95,0.00,,,0.00,meteohub,2013-07-24 01:39:00,
2013-07-23 20:44:00,70.0,68.5,29.95,South,190,0.0,3.0,95,0.00,,,0.00,meteohub,2013-07-24 01:44:00,
2013-07-23 20:50:00,70.0,68.5,29.95,South,190,0.0,3.0,95,0.00,,,0.00,meteohub,2013-07-24 01:50:00,
2013-07-23 20:56:00,70.0,68.5,29.96,South,190,0.0,1.0,95,0.00,,,0.00,meteohub,2013-07-24 01:56:00,
2013-07-23 21:02:00,70.0,68.5,29.96,SSE,166,0.0,3.0,95,0.00,,,0.00,meteohub,2013-07-24 02:02:00,
2013-07-23 21:07:00,70.0,68.5,29.96,SSW,199,0.0,3.0,95,0.00,,,0.00,meteohub,2013-07-24 02:07:00,
2013-07-23 21:15:00,70.0,68.5,29.96,SSW,198,1.0,3.0,95,0.00,,,0.00,meteohub,2013-07-24 02:15:00,
2013-07-23 21:20:00,69.8,68.4,29.96,SSW,199,1.0,2.0,95,0.00,,,0.00,meteohub,2013-07-24 02:20:00,
2013-07-23 21:27:00,69.8,68.4,29.96,SSW,199,0.0,2.0,95,0.00,,,0.00,meteohub,2013-07-24 02:27:00,
2013-07-23 21:32:00,69.8,68.4,29.96,SSW,199,1.0,1.0,95,0.00,,,0.00,meteohub,2013-07-24 02:32:00,
2013-07-23 21:37:00,69.6,68.2,29.96,SSW,199,0.0,1.0,95,0.00,,,0.00,meteohub,2013-07-24 02:37:00,
2013-07-23 21:42:00,69.6,68.2,29.96,SSW,199,0.0,1.0,95,0.00,,,0.00,meteohub,2013-07-24 02:42:00,
2013-07-23 21:47:00,69.6,68.2,29.96,SSW,199,0.0,1.0,95,0.00,,,0.00,meteohub,2013-07-24 02:47:00,
2013-07-23 21:52:00,69.6,68.2,29.96,SSW,199,1.0,1.0,95,0.00,,,0.00,meteohub,2013-07-24 02:52:00,
2013-07-23 22:00:00,69.6,68.2,29.96,WSW,250,0.0,3.0,95,0.00,,,0.00,meteohub,2013-07-24 03:00:00,
2013-07-23 22:05:00,69.6,68.2,29.96,WSW,253,1.0,3.0,95,0.01,,,0.01,meteohub,2013-07-24 03:05:00,
2013-07-23 22:10:00,69.6,68.2,29.95,WSW,253,1.0,3.0,95,0.01,,,0.01,meteohub,2013-07-24 03:10:00,
2013-07-23 22:15:00,69.6,68.2,29.95,SSW,210,2.0,3.0,95,0.01,,,0.01,meteohub,2013-07-24 03:15:00,
2013-07-23 22:21:00,69.6,68.2,29.95,SW,220,0.0,4.0,95,0.01,,,0.01,meteohub,2013-07-24 03:21:00,
2013-07-23 22:26:00,69.4,68.0,29.94,WSW,243,1.0,4.0,95,0.01,,,0.01,meteohub,2013-07-24 03:26:00,
2013-07-23 22:32:00,69.4,68.0,29.94,WNW,288,0.0,3.0,95,0.01,,,0.01,meteohub,2013-07-24 03:32:00,
2013-07-23 22:37:00,69.4,68.0,29.94,SW,219,0.0,3.0,95,0.01,,,0.01,meteohub,2013-07-24 03:37:00,
2013-07-23 22:42:00,69.4,68.0,29.94,WSW,251,0.0,3.0,95,0.01,,,0.01,meteohub,2013-07-24 03:42:00,
2013-07-23 22:47:00,69.4,68.0,29.94,WSW,247,0.0,3.0,95,0.01,,,0.01,meteohub,2013-07-24 03:47:00,
2013-07-23 22:52:00,69.4,68.0,29.94,WSW,246,0.0,4.0,95,0.01,,,0.01,meteohub,2013-07-24 03:52:00,
2013-07-23 22:57:00,69.3,67.8,29.94,WSW,247,2.0,4.0,95,0.01,,,0.01,meteohub,2013-07-24 03:57:00,
2013-07-23 23:01:00,69.3,67.8,29.94,WSW,256,0.0,4.0,95,0.00,,,0.01,meteohub,2013-07-24 04:01:00,
2013-07-23 23:02:00,69.3,67.8,29.94,WSW,256,0.0,4.0,95,0.00,,,0.01,meteohub,2013-07-24 04:02:00,
2013-07-23 23:04:00,69.3,67.8,29.94,WSW,245,1.0,4.0,95,0.00,,,0.01,meteohub,2013-07-24 04:04:00,
2013-07-23 23:08:00,69.3,67.8,29.94,WSW,245,1.0,4.0,95,0.00,,,0.01,meteohub,2013-07-24 04:08:00,
2013-07-23 23:13:00,69.3,67.8,29.94,WSW,253,0.0,3.0,95,0.00,,,0.01,meteohub,2013-07-24 04:13:00,
2013-07-23 23:19:00,69.3,67.8,29.94,WSW,237,0.0,5.0,95,0.00,,,0.01,meteohub,2013-07-24 04:19:00,
2013-07-23 23:24:00,69.3,67.8,29.94,WSW,252,0.0,5.0,95,0.00,,,0.01,meteohub,2013-07-24 04:24:00,
2013-07-23 23:29:00,69.3,67.8,29.94,WSW,252,0.0,5.0,95,0.00,,,0.01,meteohub,2013-07-24 04:29:00,
2013-07-23 23:34:00,69.3,67.8,29.94,WSW,252,2.0,3.0,95,0.00,,,0.01,meteohub,2013-07-24 04:34:00,
2013-07-23 23:39:00,69.3,67.8,29.94,WSW,253,0.0,3.0,95,0.00,,,0.01,meteohub,2013-07-24 04:39:00,
2013-07-23 23:44:00,69.3,67.8,29.94,WSW,253,1.0,3.0,95,0.00,,,0.01,meteohub,2013-07-24 04:44:00,
2013-07-23 23:49:00,69.3,67.8,29.94,WSW,253,0.0,3.0,95,0.00,,,0.01,meteohub,2013-07-24 04:49:00,
2013-07-23 23:54:00,69.3,67.8,29.94,SSW,208,0.0,3.0,95,0.00,,,0.01,meteohub,2013-07-24 04:54:00,
2013-07-23 23:59:00,69.3,67.8,29.94,SSW,213,1.0,3.0,95,0.00,,,0.01,meteohub,2013-07-24 04:59:00,